»·PEaware :: WAT436 KSAN-KPSP

WAT436 :: KSAN-KPSP

FLIGHT INFORMATION

Flight Status: Arrived
Operator:
Walker Air Transport
More flights by this operator :: More flights under this callsign
Pilot: Dante R. (31808)
Aircraft: CESSNA 172 SKYHAWK
(C172)
More flights by this aircraft type
Origin: KSAN San Diego Intl-Lindbergh
United States
Destination: KPSP Palm Springs Intl
United States
More flights between these airports :: More routes between these airports
Route:
File this flight plan on PilotEdge
Remarks:
Altitude:
(Current/Filed)
0ft
Speed:
(Current/Filed)
0kts
Departed: 29-Dec-20 09:21 PM
Arrived: 29-Dec-20 10:30 PM
Distance/Time
Traveled:
74nm/1:09
Distance/Time
To Go:
Arrived

Flight Plot

Page will automatically refresh every two minutes.


Map Options




Map Legend


Flown Route
Filed Route
Departure Airport
Arrival Airport
Navaid (VOR, NDB)
Fix

Horizontal Profiles

Position Reports

Time Latitude Longitude Heading Altitude Ground
Speed
29-Dec-20 21:06 32.733333 -117.178289 283 21ft 0kts
29-Dec-20 21:07 32.733333 -117.178289 283 21ft 0kts
29-Dec-20 21:08 32.733333 -117.178289 283 21ft 0kts
29-Dec-20 21:09 32.733333 -117.178289 283 21ft 0kts
29-Dec-20 21:10 32.733333 -117.178289 283 21ft 0kts
29-Dec-20 21:11 32.733408 -117.178637 284 21ft 4kts
29-Dec-20 21:12 32.732226 -117.179434 102 21ft 11kts
29-Dec-20 21:13 32.731337 -117.175617 101 21ft 10kts
29-Dec-20 21:14 32.731261 -117.175492 159 21ft 0kts
29-Dec-20 21:15 32.731261 -117.175492 159 21ft 0kts
29-Dec-20 21:16 32.731261 -117.175492 159 21ft 0kts
29-Dec-20 21:17 32.731261 -117.175492 159 21ft 0kts
29-Dec-20 21:18 32.731232 -117.175480 159 21ft 1kts
29-Dec-20 21:19 32.730152 -117.175627 267 21ft 9kts
29-Dec-20 21:20 32.733439 -117.188685 292 162ft 82kts
29-Dec-20 21:21 32.746694 -117.210050 324 767ft 87kts
29-Dec-20 21:22 32.765826 -117.227284 325 1488ft 86kts
29-Dec-20 21:23 32.787988 -117.246070 331 1783ft 106kts
29-Dec-20 21:24 32.813156 -117.257358 352 2083ft 96kts
29-Dec-20 21:25 32.838086 -117.264593 349 2642ft 92kts
29-Dec-20 21:26 32.861577 -117.272786 345 3283ft 86kts
29-Dec-20 21:27 32.884635 -117.279066 358 3939ft 83kts
29-Dec-20 21:28 32.907110 -117.276003 26 4509ft 90kts
29-Dec-20 21:29 32.929421 -117.264489 24 4598ft 83kts
29-Dec-20 21:30 32.951152 -117.250594 28 4997ft 90kts
29-Dec-20 21:31 32.973562 -117.239118 22 5398ft 83kts
29-Dec-20 21:32 32.994815 -117.228251 21 5409ft 83kts
29-Dec-20 21:33 33.015778 -117.217166 32 5473ft 84kts
29-Dec-20 21:34 33.035957 -117.204287 19 5543ft 83kts
29-Dec-20 21:35 33.057858 -117.197907 11 5654ft 80kts
29-Dec-20 21:36 33.080624 -117.194256 9 6122ft 85kts
29-Dec-20 21:37 33.103265 -117.191258 14 6654ft 80kts
29-Dec-20 21:38 33.124691 -117.184979 15 7170ft 78kts
29-Dec-20 21:39 33.145949 -117.179052 15 7522ft 89kts
29-Dec-20 21:40 33.171688 -117.171577 16 7617ft 90kts
29-Dec-20 21:41 33.189726 -117.160384 41 8053ft 67kts
29-Dec-20 21:42 33.202545 -117.142053 43 8409ft 76kts
29-Dec-20 21:43 33.216225 -117.122812 42 8821ft 74kts
29-Dec-20 21:44 33.228259 -117.103217 49 9232ft 74kts
29-Dec-20 21:45 33.240909 -117.083229 44 9510ft 79kts
29-Dec-20 21:46 33.256890 -117.060267 45 9501ft 93kts
29-Dec-20 21:47 33.273405 -117.036553 45 9502ft 92kts
29-Dec-20 21:48 33.289484 -117.012948 45 9498ft 91kts
29-Dec-20 21:49 33.305411 -116.989478 46 9498ft 91kts
29-Dec-20 21:50 33.321261 -116.965734 46 9494ft 91kts
29-Dec-20 21:51 33.337208 -116.941745 46 9494ft 92kts
29-Dec-20 21:52 33.353141 -116.917727 46 9491ft 92kts
29-Dec-20 21:53 33.368801 -116.893629 46 9490ft 91kts
29-Dec-20 21:54 33.384198 -116.869609 46 9489ft 90kts
29-Dec-20 21:55 33.399228 -116.845520 49 9489ft 91kts
29-Dec-20 21:56 33.412790 -116.819721 50 9488ft 91kts
29-Dec-20 21:57 33.426160 -116.793703 50 9487ft 91kts
29-Dec-20 21:58 33.439500 -116.767617 50 9487ft 92kts
29-Dec-20 21:59 33.452630 -116.741384 50 9490ft 91kts
29-Dec-20 22:00 33.465714 -116.715061 50 9491ft 91kts
29-Dec-20 22:01 33.478890 -116.688193 51 8989ft 93kts
29-Dec-20 22:02 33.492533 -116.661762 48 8472ft 94kts
29-Dec-20 22:03 33.506960 -116.635418 49 7958ft 95kts
29-Dec-20 22:04 33.521640 -116.608483 48 7535ft 98kts
29-Dec-20 22:05 33.535553 -116.581801 48 7521ft 91kts
29-Dec-20 22:06 33.548467 -116.556364 47 7522ft 88kts
29-Dec-20 22:07 33.560892 -116.531192 48 7523ft 87kts
29-Dec-20 22:08 33.572840 -116.506101 48 7524ft 86kts
29-Dec-20 22:09 33.584683 -116.481001 48 7526ft 86kts
29-Dec-20 22:10 33.596411 -116.455975 48 7526ft 86kts
29-Dec-20 22:11 33.608012 -116.430683 48 7528ft 86kts
29-Dec-20 22:12 33.621833 -116.408315 39 7521ft 82kts
29-Dec-20 22:13 33.637142 -116.386649 38 7008ft 86kts
29-Dec-20 22:14 33.652813 -116.363943 39 6358ft 90kts
29-Dec-20 22:15 33.669011 -116.340373 29 5627ft 90kts
29-Dec-20 22:16 33.691994 -116.342382 336 4856ft 88kts
29-Dec-20 22:18 33.712181 -116.360064 326 4129ft 92kts
29-Dec-20 22:19 33.732021 -116.379798 326 3402ft 93kts
29-Dec-20 22:20 33.753293 -116.398240 329 2681ft 94kts
29-Dec-20 22:21 33.773374 -116.417145 318 2152ft 84kts
29-Dec-20 22:22 33.789474 -116.436125 324 2008ft 78kts
29-Dec-20 22:23 33.808340 -116.452761 328 2005ft 85kts
29-Dec-20 22:24 33.828358 -116.469457 326 1729ft 92kts
29-Dec-20 22:25 33.848189 -116.487750 330 1548ft 87kts
29-Dec-20 22:26 33.867896 -116.502728 331 1483ft 81kts
29-Dec-20 22:27 33.879278 -116.522817 251 1232ft 84kts
29-Dec-20 22:28 33.860214 -116.528868 154 987ft 86kts
29-Dec-20 22:29 33.840742 -116.514642 142 591ft 74kts
29-Dec-20 22:30 33.827486 -116.502836 136 429ft 31kts
29-Dec-20 22:31 33.826869 -116.501593 49 429ft 0kts
29-Dec-20 22:32 33.825870 -116.500442 144 429ft 14kts
29-Dec-20 22:33 33.822571 -116.497444 143 429ft 19kts
29-Dec-20 22:33 33.821456 -116.496106 147 430ft 0kts
29-Dec-20 22:35 33.821456 -116.496106 147 430ft 0kts
29-Dec-20 22:36 33.821456 -116.496106 147 430ft 0kts

Navigation Log

Ident Type
Flight plan parsing failed, navigation log unavailable